»·PEaware :: ASA304 KSFO-KPSP

ASA304 :: KSFO-KPSP

FLIGHT INFORMATION

Flight Status: Arrived
Operator:
Alaska Airlines
More flights by this operator :: More flights under this callsign
Pilot: Tamas B. (15764)
Aircraft: BOEING 737-800
(B738)
More flights by this aircraft type
Origin: KSFO San Francisco Intl
United States
Destination: KPSP Palm Springs Intl
United States
More flights between these airports :: More routes between these airports
Route: +SSTIK3 LOSHN CLASN SIZLR2
File this flight plan on PilotEdge
Remarks: PBN / A1B1C1D1S1S2 DOF / 180102 REG / N551AS EET / KZLA0032 OPR / ASA PER / C RMK / TCAS SIMBRIEF
Altitude:
(Current/Filed)
35,000ft
Speed:
(Current/Filed)
465kts
Departed: 02-Jan-18 10:16 AM
Arrived: 02-Jan-18 11:29 AM
Distance/Time
Traveled:
365nm/1:13
Distance/Time
To Go:
Arrived

Flight Plot

Page will automatically refresh every two minutes.

Flight plan parsing failed; only flown route is shown


Map Options




Map Legend


Flown Route
Filed Route
Departure Airport
Arrival Airport
Navaid (VOR, NDB)
Fix

Horizontal Profiles

Position Reports

Time Latitude Longitude Heading Altitude Ground
Speed
02-Jan-18 09:22 37.612251 -122.389027 298 20ft 0kts
02-Jan-18 09:23 37.612251 -122.389027 298 20ft 0kts
02-Jan-18 09:24 37.612251 -122.389027 298 20ft 0kts
02-Jan-18 09:25 37.612251 -122.389027 298 20ft 0kts
02-Jan-18 09:26 37.612251 -122.389027 298 20ft 0kts
02-Jan-18 09:27 37.612251 -122.389027 298 20ft 0kts
02-Jan-18 09:28 37.612251 -122.389027 298 20ft 0kts
02-Jan-18 09:29 37.612251 -122.389027 298 20ft 0kts
02-Jan-18 09:30 37.612251 -122.389027 298 20ft 0kts
02-Jan-18 09:31 37.612251 -122.389027 298 20ft 0kts
02-Jan-18 09:32 37.612251 -122.389027 298 20ft 0kts
02-Jan-18 09:33 37.612251 -122.389027 298 20ft 0kts
02-Jan-18 09:34 37.612251 -122.389027 298 20ft 0kts
02-Jan-18 09:35 37.612251 -122.389027 298 20ft 0kts
02-Jan-18 09:36 37.612251 -122.389027 298 20ft 0kts
02-Jan-18 09:37 37.612251 -122.389027 298 20ft 0kts
02-Jan-18 09:38 37.612251 -122.389027 298 20ft 0kts
02-Jan-18 09:39 37.612251 -122.389027 298 20ft 0kts
02-Jan-18 09:40 37.612251 -122.389027 298 20ft 0kts
02-Jan-18 09:41 37.612251 -122.389027 298 20ft 0kts
02-Jan-18 09:42 37.612251 -122.389027 298 20ft 0kts
02-Jan-18 09:43 37.612251 -122.389027 298 20ft 0kts
02-Jan-18 09:44 37.612251 -122.389027 298 20ft 0kts
02-Jan-18 09:45 37.612251 -122.389027 298 20ft 0kts
02-Jan-18 09:46 37.612251 -122.389027 298 20ft 0kts
02-Jan-18 09:47 37.612251 -122.389027 298 20ft 0kts
02-Jan-18 09:48 37.612251 -122.389027 298 20ft 0kts
02-Jan-18 09:49 37.612251 -122.389027 298 20ft 0kts
02-Jan-18 09:50 37.612251 -122.389027 298 20ft 0kts
02-Jan-18 09:51 37.612251 -122.389027 298 20ft 0kts
02-Jan-18 09:52 37.612251 -122.389027 298 20ft 0kts
02-Jan-18 09:53 37.612251 -122.389027 298 20ft 0kts
02-Jan-18 09:54 37.612251 -122.389027 298 20ft 0kts
02-Jan-18 09:55 37.612251 -122.389027 298 20ft 0kts
02-Jan-18 09:56 37.612251 -122.389027 298 20ft 0kts
02-Jan-18 09:57 37.612251 -122.389027 298 20ft 0kts
02-Jan-18 09:58 37.612251 -122.389027 298 20ft 0kts
02-Jan-18 09:59 37.612251 -122.389027 298 20ft 0kts
02-Jan-18 10:00 37.612251 -122.389027 298 20ft 0kts
02-Jan-18 10:01 37.612251 -122.389027 298 21ft 0kts
02-Jan-18 10:02 37.612084 -122.388634 298 21ft 1kts
02-Jan-18 10:03 37.612009 -122.387961 254 21ft 2kts
02-Jan-18 10:04 37.612343 -122.387412 209 21ft 0kts
02-Jan-18 10:05 37.612391 -122.387381 207 20ft 0kts
02-Jan-18 10:06 37.612390 -122.387381 207 20ft 0kts
02-Jan-18 10:07 37.611664 -122.387121 124 20ft 13kts
02-Jan-18 10:08 37.610687 -122.384815 118 20ft 0kts
02-Jan-18 10:09 37.610687 -122.384815 118 20ft 0kts
02-Jan-18 10:10 37.610687 -122.384815 118 20ft 0kts
02-Jan-18 10:11 37.610687 -122.384815 118 20ft 0kts
02-Jan-18 10:12 37.610687 -122.384815 118 20ft 0kts
02-Jan-18 10:13 37.610650 -122.384726 118 20ft 4kts
02-Jan-18 10:14 37.610255 -122.383967 52 20ft 4kts
02-Jan-18 10:15 37.610892 -122.383113 79 21ft 0kts
02-Jan-18 10:16 37.610255 -122.382929 206 20ft 10kts
02-Jan-18 10:17 37.608722 -122.383846 179 21ft 7kts
02-Jan-18 10:18 37.608642 -122.383831 166 21ft 1kts
02-Jan-18 10:19 37.607120 -122.381959 162 20ft 4kts
02-Jan-18 10:20 37.607098 -122.381949 160 20ft 0kts
02-Jan-18 10:21 37.606888 -122.381773 136 20ft 0kts
02-Jan-18 10:22 37.609815 -122.378705 26 21ft 75kts
02-Jan-18 10:23 37.647593 -122.354962 5 586ft 182kts
02-Jan-18 10:24 37.694643 -122.365869 335 2419ft 228kts
02-Jan-18 10:25 37.697027 -122.440457 224 5160ft 268kts
02-Jan-18 10:26 37.626629 -122.462719 183 8475ft 278kts
02-Jan-18 10:27 37.548631 -122.469486 183 11646ft 289kts
02-Jan-18 10:28 37.473954 -122.446659 135 14576ft 299kts
02-Jan-18 10:29 37.419495 -122.366788 132 17302ft 311kts
02-Jan-18 10:30 37.363892 -122.282967 132 19835ft 322kts
02-Jan-18 10:31 37.307438 -122.197643 133 22121ft 334kts
02-Jan-18 10:32 37.255839 -122.119558 133 23956ft 345kts
02-Jan-18 10:33 37.196046 -122.028987 134 25849ft 358kts
02-Jan-18 10:34 37.136050 -121.937983 135 27749ft 363kts
02-Jan-18 10:35 37.073406 -121.842788 137 29756ft 360kts
02-Jan-18 10:36 37.010798 -121.747619 141 31463ft 358kts
02-Jan-18 10:37 36.948350 -121.652635 144 32876ft 359kts
02-Jan-18 10:38 36.885874 -121.557509 144 34061ft 363kts
02-Jan-18 10:39 36.823678 -121.462542 145 35245ft 359kts
02-Jan-18 10:40 36.757804 -121.362358 143 35273ft 395kts
02-Jan-18 10:41 36.688438 -121.256244 142 35250ft 430kts
02-Jan-18 10:42 36.610365 -121.136606 141 35252ft 461kts
02-Jan-18 10:43 36.529653 -121.012618 140 35241ft 468kts
02-Jan-18 10:44 36.447562 -120.888113 141 35255ft 470kts
02-Jan-18 10:45 36.364332 -120.765334 141 35266ft 469kts
02-Jan-18 10:46 36.281069 -120.642552 141 35263ft 470kts
02-Jan-18 10:47 36.200251 -120.523228 141 35267ft 470kts
02-Jan-18 10:48 36.117605 -120.401025 141 35267ft 471kts
02-Jan-18 10:49 36.043521 -120.291266 141 35267ft 470kts
02-Jan-18 10:50 35.966251 -120.176682 141 35266ft 471kts
02-Jan-18 10:51 35.896105 -120.072505 141 35272ft 471kts
02-Jan-18 10:52 35.833216 -119.965442 125 35308ft 494kts
02-Jan-18 10:53 35.777286 -119.814296 124 35292ft 495kts
02-Jan-18 10:54 35.720195 -119.662752 124 35291ft 495kts
02-Jan-18 10:55 35.662942 -119.511450 128 35287ft 491kts
02-Jan-18 10:56 35.580265 -119.392140 143 35296ft 466kts
02-Jan-18 10:57 35.506902 -119.293095 144 35279ft 465kts
02-Jan-18 10:58 35.425933 -119.183212 143 35275ft 467kts
02-Jan-18 10:59 35.347564 -119.076606 143 35269ft 467kts
02-Jan-18 11:00 35.277325 -118.981021 143 35272ft 472kts
02-Jan-18 11:01 35.202189 -118.878637 142 35276ft 482kts
02-Jan-18 11:02 35.113669 -118.757787 141 35131ft 490kts
02-Jan-18 11:03 35.039225 -118.655879 142 34977ft 468kts
02-Jan-18 11:04 34.959561 -118.546742 143 33344ft 418kts
02-Jan-18 11:05 34.891007 -118.452975 142 31633ft 393kts
02-Jan-18 11:06 34.828957 -118.367981 141 30107ft 386kts
02-Jan-18 11:07 34.768485 -118.285010 141 28510ft 378kts
02-Jan-18 11:08 34.706980 -118.200537 139 26839ft 373kts
02-Jan-18 11:09 34.639347 -118.107502 138 24989ft 366kts
02-Jan-18 11:10 34.575373 -118.016618 125 23210ft 356kts
02-Jan-18 11:11 34.532032 -117.909929 121 22290ft 354kts
02-Jan-18 11:12 34.489725 -117.806405 121 21332ft 348kts
02-Jan-18 11:13 34.447845 -117.704113 120 20419ft 342kts
02-Jan-18 11:14 34.406663 -117.603549 119 19547ft 337kts
02-Jan-18 11:15 34.366015 -117.504506 119 18647ft 334kts
02-Jan-18 11:16 34.326239 -117.407450 118 17416ft 326kts
02-Jan-18 11:17 34.290534 -117.322121 121 16749ft 326kts
02-Jan-18 11:18 34.250474 -117.236589 120 16008ft 325kts
02-Jan-18 11:19 34.207080 -117.144372 120 15999ft 326kts
02-Jan-18 11:20 34.163634 -117.052061 119 15999ft 324kts
02-Jan-18 11:21 34.119343 -116.957796 116 16011ft 347kts
02-Jan-18 11:22 34.072329 -116.857223 116 14944ft 346kts
02-Jan-18 11:23 34.028429 -116.758406 105 13806ft 335kts
02-Jan-18 11:24 34.001363 -116.654468 105 12425ft 327kts
02-Jan-18 11:25 33.972918 -116.552008 117 11031ft 322kts
02-Jan-18 11:26 33.912650 -116.478121 135 9825ft 299kts
02-Jan-18 11:27 33.858651 -116.416940 135 9013ft 272kts
02-Jan-18 11:28 33.809494 -116.349931 127 9012ft 277kts
02-Jan-18 11:29 33.759923 -116.290792 161 7662ft 285kts
02-Jan-18 11:30 33.712467 -116.332000 263 6348ft 220kts
02-Jan-18 11:31 33.715873 -116.394374 302 5401ft 150kts
02-Jan-18 11:32 33.747173 -116.434145 320 3221ft 180kts
02-Jan-18 11:33 33.786048 -116.469303 325 1465ft 164kts
02-Jan-18 11:34 33.820716 -116.499826 323 593ft 156kts
02-Jan-18 11:35 33.836281 -116.514719 221 485ft 0kts
02-Jan-18 11:36 33.836281 -116.514719 221 485ft 0kts
02-Jan-18 11:37 33.835559 -116.514902 166 485ft 4kts
02-Jan-18 11:38 33.832673 -116.512443 145 484ft 13kts
02-Jan-18 11:39 33.829504 -116.509654 144 484ft 15kts
02-Jan-18 11:40 33.826352 -116.506756 141 484ft 8kts
02-Jan-18 11:41 33.824526 -116.506962 207 484ft 5kts
02-Jan-18 11:42 33.823752 -116.506954 169 484ft 1kts
02-Jan-18 11:43 33.823733 -116.506950 170 484ft 0kts
02-Jan-18 11:44 33.823733 -116.506950 170 484ft 0kts

Navigation Log

Ident Type
Flight plan parsing failed, navigation log unavailable